Time;durP1;ratioP1;P1;durP2;ratioP2;P2;SDS_P1;SDS_P2;PMS_P1;PMS_P2;Temp;Humidity;BMP_temperature;BMP_pressure;BME280_temperature;BME280_humidity;BME280_pressure;Samples;Min_cycle;Max_cycle;Signal;HPM_P1;HPM_P2
2022/10/09 00:01:16;;;;;;;7.50;4.82;;;;;;;8.62;77.80;102297.94;3578376;40;20082;-63
2022/10/09 00:03:45;;;;;;;9.27;4.97;;;;;;;8.62;77.95;102303.31;3575556;40;20064;-64
2022/10/09 00:06:20;;;;;;;10.40;4.85;;;;;;;8.06;77.73;102212.94;3576421;40;20060;-64
2022/10/09 00:08:46;;;;;;;11.80;5.63;;;;;;;8.48;77.73;102293.00;3576764;40;20138;-64
2022/10/09 00:11:20;;;;;;;11.00;5.30;;;;;;;8.56;77.68;102299.03;3579039;40;20118;-63
2022/10/09 00:13:48;;;;;;;7.78;4.32;;;;;;;8.55;77.84;102304.41;3576557;40;20056;-64
2022/10/09 00:16:16;;;;;;;10.00;4.60;;;;;;;8.54;77.65;102306.22;3579237;40;20092;-63
2022/10/09 00:18:42;;;;;;;13.65;5.15;;;;;;;8.43;77.89;102291.38;3581148;40;20056;-62
2022/10/09 00:21:24;;;;;;;11.52;5.25;;;;;;;8.51;77.57;102300.09;3581441;40;20379;-63
2022/10/09 00:23:54;;;;;;;5.68;4.03;;;;;;;7.29;76.58;102098.28;3576807;40;20055;-63
2022/10/09 00:26:20;;;;;;;7.00;4.50;;;;;;;8.14;76.62;102253.75;3579195;40;20064;-63
2022/10/09 00:28:46;;;;;;;12.07;4.88;;;;;;;8.45;76.36;102305.63;3577531;40;20121;-63
2022/10/09 00:31:15;;;;;;;11.38;5.20;;;;;;;8.44;76.47;102310.09;3577879;40;20106;-63
2022/10/09 00:33:41;;;;;;;11.00;5.13;;;;;;;7.84;76.84;102206.44;3583272;39;20082;-64
2022/10/09 00:36:15;;;;;;;9.50;4.90;;;;;;;8.38;76.51;102310.28;3577641;40;20087;-63
2022/10/09 00:38:42;;;;;;;11.13;5.43;;;;;;;7.96;77.15;102232.88;3588892;39;20419;-63
2022/10/09 00:41:13;;;;;;;11.75;5.03;;;;;;;8.30;76.79;102301.53;3578173;40;20095;-63
2022/10/09 00:43:54;;;;;;;11.02;5.35;;;;;;;8.26;77.07;102299.88;3578740;40;20056;-63
2022/10/09 00:46:43;;;;;;;10.93;4.88;;;;;;;8.23;77.57;102295.47;3584146;39;20052;-63
2022/10/09 00:49:29;;;;;;;9.60;5.43;;;;;;;8.19;77.15;102296.50;3577720;40;20052;-63
2022/10/09 00:52:02;;;;;;;9.23;5.15;;;;;;;8.14;78.16;102291.25;3581168;40;20298;-63
2022/10/09 00:54:34;;;;;;;10.23;5.20;;;;;;;8.11;77.45;102302.06;3578143;40;20395;-63
2022/10/09 00:57:01;;;;;;;20.50;11.77;;;;;;;7.33;77.69;102161.47;3579244;40;20105;-62
2022/10/09 00:59:27;;;;;;;12.30;6.15;;;;;;;8.05;77.26;102296.88;3574899;40;20053;-63
2022/10/09 01:01:53;;;;;;;12.10;5.88;;;;;;;8.00;77.52;102292.59;3578171;40;20048;-62
2022/10/09 01:04:19;;;;;;;13.90;5.18;;;;;;;7.92;78.08;102284.75;3577752;40;20403;-63
2022/10/09 01:07:07;;;;;;;8.95;5.07;;;;;;;7.91;77.85;102296.38;3579343;40;20064;-62
2022/10/09 01:10:10;;;;;;;11.43;4.93;;;;;;;7.88;78.20;102294.66;3578662;40;20069;-62
2022/10/09 01:13:11;;;;;;;10.90;5.80;;;;;;;7.91;78.29;102288.34;3576389;40;20141;-63
2022/10/09 01:16:06;;;;;;;11.25;5.03;;;;;;;7.93;78.57;102297.22;3579844;40;20283;-62
2022/10/09 01:19:00;;;;;;;12.60;5.38;;;;;;;7.93;78.38;102294.56;3579038;40;20383;-62
2022/10/09 01:21:51;;;;;;;7.93;4.50;;;;;;;7.87;77.83;102284.00;3579419;40;20058;-62
2022/10/09 01:24:35;;;;;;;10.43;6.03;;;;;;;7.94;78.17;102298.97;3574350;40;20065;-63
2022/10/09 01:27:13;;;;;;;11.02;5.68;;;;;;;7.91;77.67;102293.69;3577131;40;20059;-62
2022/10/09 01:29:49;;;;;;;11.07;5.30;;;;;;;7.92;78.28;102300.81;3579708;40;20055;-62
2022/10/09 01:32:24;;;;;;;10.35;4.90;;;;;;;7.18;77.81;102170.78;3578545;40;20362;-62
2022/10/09 01:34:52;;;;;;;11.05;5.53;;;;;;;7.82;78.24;102277.88;3577953;40;20337;-63
2022/10/09 01:37:22;;;;;;;11.35;5.72;;;;;;;7.85;77.93;102288.50;3578479;40;20060;-62
2022/10/09 01:39:50;;;;;;;10.13;5.35;;;;;;;7.85;78.82;102286.72;3578776;40;20052;-62
2022/10/09 01:42:22;;;;;;;10.75;5.68;;;;;;;7.83;77.88;102275.19;3580023;39;20111;-64
2022/10/09 01:44:47;;;;;;;8.30;5.25;;;;;;;7.68;77.89;102265.75;3575509;40;20876;-63
2022/10/09 01:47:20;;;;;;;12.65;5.40;;;;;;;7.72;78.37;102281.75;3579636;39;20071;-63
2022/10/09 01:50:08;;;;;;;7.93;4.95;;;;;;;7.67;78.28;102269.38;3578327;40;20055;-62
2022/10/09 01:52:52;;;;;;;8.93;4.97;;;;;;;7.64;78.09;102269.44;3576803;40;20065;-62
2022/10/09 01:55:49;;;;;;;10.90;5.85;;;;;;;7.63;78.82;102266.78;3579343;40;20072;-62
2022/10/09 01:58:47;;;;;;;10.05;5.40;;;;;;;6.80;78.14;102131.66;3576086;40;20204;-62
2022/10/09 02:01:16;;;;;;;13.52;5.40;;;;;;;7.64;77.97;102264.09;3577362;40;20413;-62
2022/10/09 02:03:48;;;;;;;11.63;5.82;;;;;;;6.85;78.16;102121.72;3579572;40;20056;-63
2022/10/09 02:06:16;;;;;;;10.90;5.47;;;;;;;7.62;78.50;102252.53;3576879;40;20564;-63
2022/10/09 02:08:48;;;;;;;11.95;5.70;;;;;;;7.61;78.07;102250.78;3579686;40;20054;-63
2022/10/09 02:11:15;;;;;;;10.55;5.95;;;;;;;7.49;78.46;102221.69;3582811;40;20310;-63
2022/10/09 02:13:43;;;;;;;10.57;5.70;;;;;;;7.53;78.08;102252.78;3580539;40;20528;-62
2022/10/09 02:16:42;;;;;;;8.90;5.43;;;;;;;7.47;78.66;102250.25;3580625;39;20083;-63
2022/10/09 02:19:39;;;;;;;9.80;5.35;;;;;;;7.43;78.39;102251.25;3570713;40;20092;-63
2022/10/09 02:22:24;;;;;;;10.77;5.70;;;;;;;6.83;78.65;102144.94;3578790;40;20067;-63
2022/10/09 02:24:51;;;;;;;16.52;6.25;;;;;;;7.39;78.25;102241.53;3579000;40;20092;-63
2022/10/09 02:27:20;;;;;;;9.32;5.75;;;;;;;7.37;78.87;102241.59;3578235;40;20052;-63
2022/10/09 02:29:48;;;;;;;10.18;5.93;;;;;;;7.38;78.97;102240.66;3585166;39;20051;-63
2022/10/09 02:32:15;;;;;;;9.07;5.90;;;;;;;7.39;77.88;102233.50;3581600;40;20057;-63
2022/10/09 02:34:42;;;;;;;14.02;5.72;;;;;;;7.01;78.67;102176.56;3577060;40;20039;-63
2022/10/09 02:37:07;;;;;;;11.93;6.40;;;;;;;7.39;78.84;102236.19;3573719;40;20069;-63
2022/10/09 02:39:34;;;;;;;8.18;5.82;;;;;;;7.38;78.57;102234.44;3577498;40;20058;-63
2022/10/09 02:41:59;;;;;;;13.75;6.00;;;;;;;7.33;78.86;102223.00;3585199;39;20055;-62
2022/10/09 02:44:26;;;;;;;11.07;6.30;;;;;;;7.40;78.50;102237.97;3579183;40;20060;-63
2022/10/09 02:46:51;;;;;;;11.63;5.50;;;;;;;6.82;78.73;102141.41;3583440;39;20048;-63
2022/10/09 02:49:17;;;;;;;10.35;6.03;;;;;;;7.40;78.66;102243.31;3580292;40;20059;-63
2022/10/09 02:51:42;;;;;;;9.55;5.90;;;;;;;7.40;78.56;102237.97;3575503;40;20048;-62
2022/10/09 02:54:09;;;;;;;9.90;6.53;;;;;;;6.63;78.62;102103.56;3578277;40;20399;-63
2022/10/09 02:56:35;;;;;;;11.48;6.32;;;;;;;7.37;78.34;102222.00;3575990;39;20064;-62
2022/10/09 02:59:01;;;;;;;12.48;6.15;;;;;;;7.41;78.62;102229.00;3578587;40;20079;-62
2022/10/09 03:01:26;;;;;;;9.20;5.85;;;;;;;7.43;77.78;102237.88;3581512;39;20052;-61
2022/10/09 03:03:52;;;;;;;13.77;6.78;;;;;;;7.40;78.60;102235.28;3579169;40;20200;-62
2022/10/09 03:06:23;;;;;;;10.30;6.53;;;;;;;7.38;78.02;102227.28;3582639;40;20406;-62
2022/10/09 03:08:50;;;;;;;13.63;7.68;;;;;;;7.37;77.13;102227.34;3579263;40;20065;-61
2022/10/09 03:11:18;;;;;;;10.40;6.75;;;;;;;7.35;77.81;102229.16;3579579;40;20056;-61
2022/10/09 03:13:44;;;;;;;10.82;6.47;;;;;;;6.50;78.19;102078.06;3579426;40;20048;-62
2022/10/09 03:16:14;;;;;;;13.23;7.03;;;;;;;7.33;78.27;102225.69;3579370;40;20389;-62
2022/10/09 03:18:41;;;;;;;15.88;7.85;;;;;;;7.33;78.75;102214.97;3580151;40;20083;-61
2022/10/09 03:21:11;;;;;;;12.05;6.88;;;;;;;7.33;78.66;102228.34;3582226;39;20052;-62
2022/10/09 03:23:37;;;;;;;11.18;6.50;;;;;;;7.33;78.41;102220.31;3577372;40;20473;-62
2022/10/09 03:26:07;;;;;;;11.57;6.40;;;;;;;7.27;78.68;102204.44;3577355;40;20060;-62
2022/10/09 03:28:39;;;;;;;12.38;6.60;;;;;;;7.27;78.25;102209.78;3579163;40;20604;-62
2022/10/09 03:31:07;;;;;;;13.40;6.80;;;;;;;7.29;78.44;102219.50;3579909;40;20052;-63
2022/10/09 03:33:35;;;;;;;14.43;6.13;;;;;;;5.98;78.10;101988.56;3579013;39;20121;-61
2022/10/09 03:36:01;;;;;;;9.57;6.35;;;;;;;7.27;78.42;102217.81;3578770;40;20404;-62
2022/10/09 03:38:26;;;;;;;13.82;6.53;;;;;;;6.72;78.83;102127.41;3581651;40;20121;-62
2022/10/09 03:40:52;;;;;;;11.00;6.28;;;;;;;6.71;78.91;102125.63;3579079;40;20065;-62
2022/10/09 03:43:18;;;;;;;11.25;6.63;;;;;;;7.19;78.63;102207.28;3579392;40;20117;-63
2022/10/09 03:45:44;;;;;;;8.90;6.57;;;;;;;7.11;79.18;102195.94;3577353;40;20772;-62
2022/10/09 03:48:12;;;;;;;13.15;6.88;;;;;;;7.16;78.69;102213.59;3577977;40;20088;-62
2022/10/09 03:50:40;;;;;;;10.98;6.10;;;;;;;7.15;79.40;102210.97;3578900;40;20070;-61
2022/10/09 03:53:09;;;;;;;11.85;6.80;;;;;;;7.14;78.98;102210.09;3579476;40;20056;-62
2022/10/09 03:55:35;;;;;;;12.05;6.45;;;;;;;6.82;78.78;102160.13;3578399;40;20156;-62
2022/10/09 03:58:01;;;;;;;10.38;5.90;;;;;;;7.11;78.37;102220.00;3584786;40;20060;-61
2022/10/09 04:00:27;;;;;;;10.68;6.10;;;;;;;7.08;78.14;102220.94;3581069;40;20045;-62
2022/10/09 04:02:53;;;;;;;9.68;5.90;;;;;;;6.98;78.02;102204.25;3578121;40;20372;-64
2022/10/09 04:05:19;;;;;;;8.68;5.63;;;;;;;7.07;77.31;102219.19;3578167;40;20044;-62
2022/10/09 04:07:44;;;;;;;9.77;5.50;;;;;;;7.07;77.24;102227.22;3577547;40;20412;-62
2022/10/09 04:10:11;;;;;;;10.45;6.10;;;;;;;6.95;77.32;102200.78;3576632;40;20056;-62
2022/10/09 04:12:37;;;;;;;11.52;5.68;;;;;;;7.07;76.95;102219.19;3579412;40;20064;-62
2022/10/09 04:15:03;;;;;;;9.88;5.47;;;;;;;6.93;76.29;102207.94;3582956;40;20079;-64
2022/10/09 04:17:30;;;;;;;10.57;6.28;;;;;;;7.03;77.09;102217.50;3580698;40;20360;-64
2022/10/09 04:19:55;;;;;;;11.73;5.78;;;;;;;7.00;76.55;102217.56;3581381;40;20402;-63
2022/10/09 04:22:21;;;;;;;11.95;6.38;;;;;;;6.90;77.17;102216.91;3581178;40;20061;-62
2022/10/09 04:24:47;;;;;;;11.93;6.07;;;;;;;6.80;77.80;102194.00;3579491;40;20060;-62
2022/10/09 04:27:13;;;;;;;10.63;6.10;;;;;;;6.89;77.76;102219.63;3582455;40;20071;-64
2022/10/09 04:29:38;;;;;;;10.82;6.40;;;;;;;6.83;78.13;102215.31;3580837;40;20071;-62
2022/10/09 04:32:05;;;;;;;10.40;6.40;;;;;;;5.95;78.48;102068.69;3580330;40;20428;-62
2022/10/09 04:34:30;;;;;;;14.73;6.75;;;;;;;6.76;78.80;102203.03;3578095;40;20237;-62
2022/10/09 04:36:56;;;;;;;14.77;6.60;;;;;;;6.77;78.75;102201.22;3576885;40;20052;-63
2022/10/09 04:39:21;;;;;;;9.75;6.65;;;;;;;6.67;78.46;102187.19;3572845;40;20307;-62
2022/10/09 04:41:47;;;;;;;11.38;6.50;;;;;;;6.74;78.48;102197.69;3582467;39;20084;-62
2022/10/09 04:44:13;;;;;;;9.70;6.18;;;;;;;6.72;78.34;102215.59;3578833;40;20387;-61
2022/10/09 04:46:38;;;;;;;10.65;6.15;;;;;;;6.70;78.33;102203.16;3577309;40;20341;-61
2022/10/09 04:49:04;;;;;;;11.43;6.40;;;;;;;6.72;78.74;102207.56;3580503;40;20459;-62
2022/10/09 04:51:30;;;;;;;12.68;6.60;;;;;;;6.72;78.36;102195.97;3576420;40;20056;-63
2022/10/09 04:53:56;;;;;;;13.50;6.80;;;;;;;6.69;78.79;102207.63;3580503;40;20059;-63
2022/10/09 04:56:23;;;;;;;9.85;5.63;;;;;;;5.50;78.50;102002.97;3578560;40;20645;-63
2022/10/09 04:58:49;;;;;;;8.02;5.93;;;;;;;6.63;78.87;102189.06;3577735;40;20060;-63
2022/10/09 05:01:23;;;;;;;11.75;6.55;;;;;;;6.67;78.35;102187.19;3578910;40;20124;-61
2022/10/09 05:03:51;;;;;;;13.15;6.88;;;;;;;6.70;78.73;102182.66;3579450;40;20078;-62
2022/10/09 05:06:19;;;;;;;12.70;6.35;;;;;;;6.69;78.34;102183.59;3579765;40;20144;-61
2022/10/09 05:08:45;;;;;;;10.93;6.40;;;;;;;6.65;79.25;102181.00;3578719;40;20445;-62
2022/10/09 05:11:15;;;;;;;12.52;7.00;;;;;;;6.66;78.93;102175.63;3577231;40;20056;-62
2022/10/09 05:13:48;;;;;;;8.68;6.25;;;;;;;6.51;79.24;102160.84;3579267;40;20318;-62
2022/10/09 05:16:19;;;;;;;9.47;6.20;;;;;;;6.60;78.66;102181.13;3576931;40;20060;-62
2022/10/09 05:18:48;;;;;;;12.68;6.13;;;;;;;6.63;79.06;102178.38;3580882;40;20391;-62
2022/10/09 05:21:15;;;;;;;11.85;6.68;;;;;;;6.63;78.61;102181.06;3576458;40;20376;-62
2022/10/09 05:23:41;;;;;;;11.13;6.22;;;;;;;6.66;78.71;102175.63;3578456;40;20052;-62
2022/10/09 05:26:11;;;;;;;11.50;6.05;;;;;;;6.58;78.23;102156.22;3570800;40;20422;-62
2022/10/09 05:28:37;;;;;;;9.60;6.13;;;;;;;6.62;78.73;102168.59;3575795;40;20206;-61
2022/10/09 05:31:05;;;;;;;9.60;5.65;;;;;;;6.48;78.42;102155.56;3584129;39;20044;-62
2022/10/09 05:33:31;;;;;;;10.73;5.88;;;;;;;5.79;78.98;102034.31;3573085;40;20060;-62
2022/10/09 05:36:00;;;;;;;9.82;6.35;;;;;;;6.40;78.77;102141.50;3583622;40;20365;-61
2022/10/09 05:38:27;;;;;;;12.43;5.88;;;;;;;6.60;78.82;102181.13;3578191;40;20153;-62
2022/10/09 05:40:56;;;;;;;12.63;6.53;;;;;;;6.60;79.59;102172.25;3576356;40;20100;-61
2022/10/09 05:43:39;;;;;;;10.93;5.93;;;;;;;6.57;78.54;102183.88;3577115;40;20056;-61
2022/10/09 05:46:16;;;;;;;11.13;6.03;;;;;;;6.58;79.02;102176.72;3579916;40;20417;-61
2022/10/09 05:48:45;;;;;;;10.55;6.25;;;;;;;6.54;78.88;102159.91;3581068;40;20265;-62
2022/10/09 05:51:36;;;;;;;11.10;5.53;;;;;;;6.57;78.77;102165.16;3581607;40;20104;-62
2022/10/09 05:54:05;;;;;;;12.45;6.22;;;;;;;6.59;79.45;102173.13;3575792;40;20347;-61
2022/10/09 05:56:33;;;;;;;9.73;5.60;;;;;;;6.58;78.94;102169.59;3577342;40;20408;-63
2022/10/09 05:59:07;;;;;;;10.23;6.15;;;;;;;5.77;78.74;102024.59;3577640;40;20071;-63
2022/10/09 06:01:38;;;;;;;11.45;6.20;;;;;;;6.60;79.31;102170.44;3576963;40;20172;-61
2022/10/09 06:04:08;;;;;;;10.00;5.88;;;;;;;6.60;80.03;102173.13;3577414;40;20052;-63
2022/10/09 06:06:38;;;;;;;10.27;5.75;;;;;;;6.60;79.62;102154.41;3576342;40;20109;-62
2022/10/09 06:09:07;;;;;;;12.35;6.57;;;;;;;6.66;79.30;102174.72;3575263;40;20379;-61
2022/10/09 06:11:37;;;;;;;15.10;6.43;;;;;;;6.67;79.47;102169.38;3578812;40;20072;-62
2022/10/09 06:14:06;;;;;;;9.07;5.53;;;;;;;6.69;80.06;102175.56;3579716;40;20114;-62
2022/10/09 06:16:38;;;;;;;10.35;5.95;;;;;;;6.70;79.74;102171.97;3579817;40;20106;-62
2022/10/09 06:19:06;;;;;;;11.57;6.10;;;;;;;6.59;79.84;102149.97;3581055;40;20092;-61
2022/10/09 06:21:33;;;;;;;9.10;5.93;;;;;;;6.70;79.82;102166.63;3582405;40;20426;-63
2022/10/09 06:24:03;;;;;;;10.43;5.82;;;;;;;6.76;79.63;102178.97;3578637;40;20097;-63
2022/10/09 06:26:29;;;;;;;11.68;6.28;;;;;;;6.77;79.41;102172.69;3580712;40;20421;-63
2022/10/09 06:29:00;;;;;;;12.68;6.18;;;;;;;6.74;79.85;102162.94;3578074;40;20056;-63
2022/10/09 06:31:30;;;;;;;11.05;6.07;;;;;;;6.19;79.46;102081.47;3581889;40;20060;-64
2022/10/09 06:33:59;;;;;;;13.13;6.07;;;;;;;6.78;79.83;102166.44;3581709;40;20063;-64
2022/10/09 06:36:29;;;;;;;9.68;6.43;;;;;;;6.15;79.16;102050.44;3578423;40;20133;-64
2022/10/09 06:38:58;;;;;;;13.73;5.85;;;;;;;6.95;79.28;102182.06;3577300;40;20060;-63
2022/10/09 06:41:28;;;;;;;10.55;5.72;;;;;;;6.95;79.24;102168.69;3577230;40;20052;-64
2022/10/09 06:44:01;;;;;;;10.60;6.07;;;;;;;6.93;78.79;102173.19;3576724;40;20098;-63
2022/10/09 06:46:35;;;;;;;14.50;6.17;;;;;;;7.05;79.44;102172.88;3577146;40;20060;-63
2022/10/09 06:49:03;;;;;;;9.25;6.43;;;;;;;6.30;79.88;102034.94;3577937;40;20055;-64
2022/10/09 06:51:30;;;;;;;12.35;5.90;;;;;;;6.71;79.33;102090.00;3576299;40;20044;-64
2022/10/09 06:53:59;;;;;;;9.73;6.30;;;;;;;7.32;79.91;102178.44;3578773;40;20365;-64
2022/10/09 06:56:30;;;;;;;7.78;6.13;;;;;;;7.39;80.01;102172.00;3577385;40;20096;-64
2022/10/09 06:59:02;;;;;;;11.73;6.68;;;;;;;7.42;80.36;102167.47;3576768;40;20489;-64
2022/10/09 07:01:30;;;;;;;8.20;6.20;;;;;;;7.50;80.09;102169.91;3578338;40;20048;-63
2022/10/09 07:04:05;;;;;;;13.75;6.88;;;;;;;7.63;80.36;102171.31;3576539;40;20075;-64
2022/10/09 07:06:37;;;;;;;16.08;7.45;;;;;;;7.71;79.78;102167.53;3579023;40;20344;-63
2022/10/09 07:09:08;;;;;;;11.35;6.90;;;;;;;7.81;79.68;102172.63;3578384;40;20064;-64
2022/10/09 07:11:38;;;;;;;9.23;6.50;;;;;;;7.96;79.75;102183.78;3579799;40;20052;-63
2022/10/09 07:14:08;;;;;;;11.45;6.30;;;;;;;7.85;79.72;102133.25;3584662;39;20329;-62
2022/10/09 07:16:42;;;;;;;13.43;6.22;;;;;;;8.31;79.88;102180.06;3576552;40;20044;-63
2022/10/09 07:19:10;;;;;;;10.80;6.65;;;;;;;8.52;79.12;102175.88;3582670;40;20056;-64
2022/10/09 07:21:39;;;;;;;14.25;6.72;;;;;;;8.74;79.06;102170.69;3579332;40;20344;-63
2022/10/09 07:24:05;;;;;;;11.13;6.70;;;;;;;8.96;77.85;102174.41;3579342;40;20057;-63
2022/10/09 07:26:35;;;;;;;11.70;6.50;;;;;;;9.14;77.42;102178.31;3580231;40;20059;-64
2022/10/09 07:29:03;;;;;;;13.10;6.45;;;;;;;9.42;77.54;102188.97;3577710;40;20065;-64
2022/10/09 07:31:29;;;;;;;9.85;6.53;;;;;;;9.67;76.02;102183.59;3575026;40;20057;-64
2022/10/09 07:33:55;;;;;;;12.43;6.60;;;;;;;9.84;75.11;102171.34;3577743;40;20447;-64
2022/10/09 07:36:22;;;;;;;13.70;6.97;;;;;;;10.18;75.39;102170.91;3576931;40;20095;-63
2022/10/09 07:38:54;;;;;;;12.73;7.25;;;;;;;10.41;73.36;102173.63;3577027;40;20063;-63
2022/10/09 07:41:23;;;;;;;9.43;6.47;;;;;;;10.16;72.01;102094.88;3580827;40;20718;-63
2022/10/09 07:43:49;;;;;;;14.77;6.80;;;;;;;10.81;72.59;102163.94;3572772;40;20323;-64
2022/10/09 07:46:18;;;;;;;11.93;6.85;;;;;;;11.09;70.74;102173.56;3581715;39;20040;-64
2022/10/09 07:48:45;;;;;;;10.45;6.55;;;;;;;11.10;71.03;102143.00;3577824;40;20474;-64
2022/10/09 07:51:15;;;;;;;11.63;6.95;;;;;;;11.35;69.30;102153.59;3579675;40;20075;-64
2022/10/09 07:53:42;;;;;;;9.30;6.68;;;;;;;11.67;68.88;102178.22;3578004;40;20151;-64
2022/10/09 07:56:20;;;;;;;11.40;6.90;;;;;;;11.89;68.43;102188.94;3579745;40;20044;-65
2022/10/09 07:59:03;;;;;;;12.02;6.50;;;;;;;11.98;66.97;102178.59;3577965;40;20053;-64
2022/10/09 08:01:32;;;;;;;15.00;6.70;;;;;;;12.21;67.45;102172.16;3578248;40;20055;-63
2022/10/09 08:04:00;;;;;;;11.07;6.78;;;;;;;12.31;66.45;102167.22;3579299;40;20286;-63
2022/10/09 08:06:26;;;;;;;12.77;6.65;;;;;;;11.86;67.22;102068.69;3577848;40;20360;-62
2022/10/09 08:08:55;;;;;;;15.70;6.38;;;;;;;12.61;66.46;102167.53;3577316;40;20400;-63
2022/10/09 08:11:24;;;;;;;9.73;6.05;;;;;;;12.83;65.85;102169.19;3575961;40;20060;-63
2022/10/09 08:13:51;;;;;;;9.43;6.25;;;;;;;12.91;64.63;102167.00;3577553;40;20063;-63
2022/10/09 08:16:19;;;;;;;8.85;5.82;;;;;;;12.95;64.51;102158.66;3579498;39;20110;-64
2022/10/09 08:18:46;;;;;;;8.27;5.70;;;;;;;12.77;64.54;102122.66;3578426;40;20095;-64
2022/10/09 08:21:16;;;;;;;9.20;5.90;;;;;;;13.27;63.98;102158.00;3575772;40;20052;-64
2022/10/09 08:23:42;;;;;;;11.48;5.25;;;;;;;13.50;64.10;102159.47;3576984;40;20367;-64
2022/10/09 08:26:20;;;;;;;15.25;5.90;;;;;;;13.64;63.94;102162.34;3575351;40;20356;-64
2022/10/09 08:29:02;;;;;;;9.02;5.40;;;;;;;13.79;62.07;102150.69;3575919;40;20346;-64
2022/10/09 08:31:30;;;;;;;9.00;5.60;;;;;;;13.80;61.21;102119.16;3577181;40;20399;-64
2022/10/09 08:34:00;;;;;;;10.98;5.30;;;;;;;13.48;60.52;102032.63;3577435;40;20383;-63
2022/10/09 08:36:27;;;;;;;9.73;5.45;;;;;;;13.79;58.83;102047.09;3574432;40;20064;-63
2022/10/09 08:38:53;;;;;;;12.15;5.50;;;;;;;14.63;60.23;102148.72;3580328;40;20048;-63
2022/10/09 08:41:42;;;;;;;13.82;5.85;;;;;;;14.84;58.46;102148.41;3576506;40;20075;-63
2022/10/09 08:44:23;;;;;;;11.57;5.10;;;;;;;15.04;57.64;102142.69;3579304;40;20083;-63
2022/10/09 08:47:07;;;;;;;11.02;5.40;;;;;;;15.31;57.58;102144.69;3579752;40;20076;-63
2022/10/09 08:49:40;;;;;;;7.63;4.65;;;;;;;15.45;54.98;102144.75;3579423;40;20064;-63
2022/10/09 08:52:34;;;;;;;9.02;4.68;;;;;;;15.63;56.70;102142.72;3580445;40;20065;-63
2022/10/09 08:55:14;;;;;;;8.68;4.72;;;;;;;15.82;55.54;102123.50;3574549;40;20060;-63
2022/10/09 08:57:40;;;;;;;9.63;4.88;;;;;;;16.01;54.98;102134.91;3579976;40;20167;-64
2022/10/09 09:00:15;;;;;;;7.88;4.30;;;;;;;15.57;54.10;102034.69;3581110;40;20383;-64
2022/10/09 09:03:06;;;;;;;9.50;4.68;;;;;;;16.35;52.66;102126.44;3580328;40;20068;-64
2022/10/09 09:06:15;;;;;;;9.43;4.63;;;;;;;16.43;52.67;102114.13;3577998;40;20044;-64
2022/10/09 09:08:51;;;;;;;9.85;5.15;;;;;;;16.67;51.69;102127.03;3573388;40;20055;-64
2022/10/09 09:11:43;;;;;;;10.82;4.50;;;;;;;16.84;53.20;102124.09;3575927;40;20477;-64
2022/10/09 09:14:27;;;;;;;7.40;4.20;;;;;;;16.58;51.95;102019.91;3582579;40;20052;-64
2022/10/09 09:17:34;;;;;;;6.50;4.28;;;;;;;17.32;49.92;102123.56;3579597;40;20310;-64
2022/10/09 09:20:59;;;;;;;8.13;4.30;;;;;;;17.07;50.38;102040.16;3579014;40;20064;-63
2022/10/09 09:23:39;;;;;;;10.10;4.05;;;;;;;17.62;50.32;102104.19;3577786;40;20060;-63
2022/10/09 09:26:17;;;;;;;8.98;4.40;;;;;;;17.83;48.67;102102.69;3576476;40;20068;-63
2022/10/09 09:28:45;;;;;;;6.78;3.72;;;;;;;17.77;47.34;102081.38;3576508;40;20079;-62
2022/10/09 09:31:22;;;;;;;9.70;3.90;;;;;;;17.04;48.19;101950.72;3576451;40;20069;-62
2022/10/09 09:34:01;;;;;;;8.98;4.07;;;;;;;18.06;49.50;102087.41;3579286;40;20052;-63
2022/10/09 09:36:57;;;;;;;6.68;4.07;;;;;;;17.95;47.22;102079.19;3577952;40;20068;-63
2022/10/09 09:39:30;;;;;;;7.50;4.03;;;;;;;18.06;47.96;102075.66;3578625;40;20062;-63
2022/10/09 09:42:12;;;;;;;10.75;4.10;;;;;;;18.14;48.20;102062.38;3574178;40;20130;-65
2022/10/09 09:44:55;;;;;;;8.00;4.40;;;;;;;18.27;48.15;102062.34;3574397;40;20426;-63
2022/10/09 09:47:44;;;;;;;10.50;4.32;;;;;;;18.43;46.54;102062.06;3574672;40;20134;-63
2022/10/09 09:50:10;;;;;;;7.75;3.88;;;;;;;18.59;46.26;102064.47;3578778;40;20078;-63
2022/10/09 09:52:43;;;;;;;8.55;3.75;;;;;;;18.59;47.93;102062.63;3580524;40;20068;-63
2022/10/09 09:55:28;;;;;;;;;;;;;;;18.82;45.95;102052.72;3578280;40;20057;-63
2022/10/09 09:58:08;;;;;;;6.40;4.03;;;;;;;18.53;45.85;101967.78;3577825;40;20006;-63
2022/10/09 10:00:34;;;;;;;10.15;4.80;;;;;;;19.12;44.64;102049.44;3578179;40;20087;-62
2022/10/09 10:03:13;;;;;;;5.90;3.63;;;;;;;19.15;44.47;102043.75;3580038;40;20051;-62
2022/10/09 10:05:42;;;;;;;7.10;3.55;;;;;;;19.22;44.88;102049.63;3574584;40;20052;-62
2022/10/09 10:08:29;;;;;;;10.45;4.07;;;;;;;19.35;44.22;102052.22;3575222;40;20315;-64
2022/10/09 10:10:59;;;;;;;7.15;3.78;;;;;;;19.50;44.19;102040.06;3579150;40;20052;-63
2022/10/09 10:13:47;;;;;;;7.82;3.72;;;;;;;19.54;43.29;102036.13;3579977;40;20064;-62
2022/10/09 10:16:25;;;;;;;7.75;3.65;;;;;;;19.14;44.34;101943.88;3580357;40;20407;-64
2022/10/09 10:18:53;;;;;;;6.60;3.50;;;;;;;19.81;43.28;102037.63;3578903;40;20110;-62
2022/10/09 10:21:21;;;;;;;9.32;3.47;;;;;;;19.89;42.29;102037.88;3579452;40;20056;-63
2022/10/09 10:24:04;;;;;;;11.40;4.72;;;;;;;19.99;41.92;102021.63;3576617;40;20462;-63
2022/10/09 10:26:54;;;;;;;5.35;2.60;;;;;;;19.95;41.15;102010.09;3579984;40;20062;-63
2022/10/09 10:29:41;;;;;;;6.78;3.72;;;;;;;20.17;40.77;102029.16;3581392;40;20044;-63
2022/10/09 10:32:37;;;;;;;7.30;3.42;;;;;;;20.31;40.01;102027.13;3581319;40;20099;-63
2022/10/09 10:35:41;;;;;;;7.97;2.88;;;;;;;20.43;39.55;102015.16;3582357;40;20056;-63
2022/10/09 10:38:31;;;;;;;;;;;;;;;20.43;39.65;102022.50;3550586;40;20087;-62
2022/10/09 10:41:23;;;;;;;6.20;2.78;;;;;;;20.63;39.87;102006.16;3577701;40;19985;-63
2022/10/09 10:44:00;;;;;;;6.28;2.60;;;;;;;20.89;40.51;102007.63;3576894;40;20145;-63
2022/10/09 10:46:52;;;;;;;7.78;2.70;;;;;;;21.07;39.18;102001.44;3576907;40;20063;-63
2022/10/09 10:49:21;;;;;;;6.07;2.45;;;;;;;21.21;38.39;101999.34;3586416;40;20070;-64
2022/10/09 10:52:19;;;;;;;6.97;2.38;;;;;;;20.95;38.04;101904.09;3580107;40;20072;-63
2022/10/09 10:55:32;;;;;;;8.32;3.15;;;;;;;21.51;39.13;101996.66;3580234;40;20075;-64
2022/10/09 10:58:19;;;;;;;6.35;2.92;;;;;;;21.59;38.50;101981.41;3580121;40;20064;-63
2022/10/09 11:01:04;;;;;;;4.70;3.20;;;;;;;21.22;38.34;101881.63;3580632;40;20099;-64
2022/10/09 11:03:41;;;;;;;6.60;3.17;;;;;;;21.96;38.27;101974.31;3580430;40;20056;-66
2022/10/09 11:06:31;;;;;;;7.68;3.28;;;;;;;22.02;39.29;101956.47;3582275;40;20375;-65
2022/10/09 11:09:22;;;;;;;6.15;2.90;;;;;;;22.23;37.46;101970.03;3578850;40;20048;-66
2022/10/09 11:12:21;;;;;;;7.20;2.60;;;;;;;22.14;37.27;101951.72;3579867;40;20052;-64
2022/10/09 11:15:21;;;;;;;4.90;2.72;;;;;;;22.34;37.30;101963.59;3580705;40;20044;-64
2022/10/09 11:18:14;;;;;;;6.70;2.63;;;;;;;22.62;36.38;101962.69;3582690;40;20273;-64
2022/10/09 11:20:45;;;;;;;7.90;3.05;;;;;;;22.82;35.71;101959.94;3577469;40;20059;-64
2022/10/09 11:23:20;;;;;;;4.40;2.80;;;;;;;22.87;35.74;101958.47;3577936;40;20072;-64
2022/10/09 11:26:02;;;;;;;5.93;3.10;;;;;;;22.84;35.71;101958.78;3579720;40;20057;-65
2022/10/09 11:28:45;;;;;;;11.90;6.22;;;;;;;22.74;35.88;101944.22;3579154;40;20054;-63
2022/10/09 11:31:40;;;;;;;6.25;3.45;;;;;;;22.84;37.20;101942.31;3576329;40;20061;-63
2022/10/09 11:34:20;;;;;;;6.32;3.10;;;;;;;22.32;36.40;101832.22;3576466;40;20060;-63
2022/10/09 11:36:46;;;;;;;7.82;2.90;;;;;;;22.97;35.34;101931.06;3576893;40;20462;-66
2022/10/09 11:39:19;;;;;;;5.55;2.85;;;;;;;23.07;36.08;101931.03;3576851;40;20373;-63
2022/10/09 11:41:50;;;;;;;4.65;2.63;;;;;;;22.89;35.45;101881.53;3576649;40;20080;-64
2022/10/09 11:44:43;;;;;;;7.03;2.83;;;;;;;23.22;35.08;101921.31;3583204;39;20125;-63
2022/10/09 11:47:43;;;;;;;5.38;3.10;;;;;;;23.29;35.60;101921.56;3579932;40;20048;-63
2022/10/09 11:50:21;;;;;;;4.35;2.53;;;;;;;23.57;34.51;101917.81;3581399;40;20060;-63
2022/10/09 11:53:10;;;;;;;5.63;2.30;;;;;;;23.25;34.48;101814.00;3578932;40;20244;-65
2022/10/09 11:55:36;;;;;;;5.03;2.20;;;;;;;23.88;33.87;101883.66;3577821;40;20373;-65
2022/10/09 11:58:19;;;;;;;5.50;2.65;;;;;;;23.36;33.61;101797.31;3581877;40;20048;-64